Time;durP1;ratioP1;P1;durP2;ratioP2;P2;SDS_P1;SDS_P2;PMS_P1;PMS_P2;Temp;Humidity;BMP_temperature;BMP_pressure;BME280_temperature;BME280_humidity;BME280_pressure;Samples;Min_cycle;Max_cycle;Signal;HPM_P1;HPM_P2
2022/06/07 00:00:25;;;;;;;0.10;0.10;;;;;;;;;;5007616;28;20105;-55
2022/06/07 00:02:51;;;;;;;0.00;0.00;;;;;;;;;;5007919;28;20529;-56
2022/06/07 00:05:18;;;;;;;0.20;0.13;;;;;;;;;;5007385;28;20120;-56
2022/06/07 00:07:44;;;;;;;0.00;0.00;;;;;;;;;;5007742;28;20054;-55
2022/06/07 00:10:11;;;;;;;0.00;0.00;;;;;;;;;;5010400;28;20058;-56
2022/06/07 00:12:37;;;;;;;0.00;0.00;;;;;;;;;;5011563;28;20046;-55
2022/06/07 00:15:04;;;;;;;0.00;0.00;;;;;;;;;;5010704;28;20054;-55
2022/06/07 00:17:30;;;;;;;0.00;0.00;;;;;;;;;;5011489;28;20065;-55
2022/06/07 00:20:00;;;;;;;0.00;0.00;;;;;;;;;;5011240;28;20505;-55
2022/06/07 00:22:26;;;;;;;0.00;0.00;;;;;;;;;;5010736;28;20513;-55
2022/06/07 00:24:53;;;;;;;0.00;0.00;;;;;;;;;;5010755;28;20058;-57
2022/06/07 00:27:19;;;;;;;0.00;0.00;;;;;;;;;;5011189;28;20077;-55
2022/06/07 00:29:46;;;;;;;0.00;0.00;;;;;;;;;;5010828;28;20576;-57
2022/06/07 00:32:13;;;;;;;0.00;0.00;;;;;;;;;;5011291;28;20100;-56
2022/06/07 00:34:40;;;;;;;0.00;0.00;;;;;;;;;;5010958;28;20058;-55
2022/06/07 00:37:06;;;;;;;0.00;0.00;;;;;;;;;;5010067;28;20058;-56
2022/06/07 00:39:32;;;;;;;0.00;0.00;;;;;;;;;;5010091;28;20066;-56
2022/06/07 00:41:59;;;;;;;0.00;0.00;;;;;;;;;;5013173;28;20586;-56
2022/06/07 00:44:25;;;;;;;0.00;0.00;;;;;;;;;;5030521;28;20054;-55
2022/06/07 00:46:56;;;;;;;0.00;0.00;;;;;;;;;;5012279;28;20058;-56
2022/06/07 00:49:23;;;;;;;0.40;0.40;;;;;;;;;;5010480;28;20050;-57
2022/06/07 00:51:49;;;;;;;0.08;0.00;;;;;;;;;;5014393;28;20069;-57
2022/06/07 00:54:23;;;;;;;0.00;0.00;;;;;;;;;;5029766;28;20109;-55
2022/06/07 00:56:50;;;;;;;0.00;0.00;;;;;;;;;;5012801;28;20047;-57
2022/06/07 00:59:16;;;;;;;0.00;0.00;;;;;;;;;;5010323;28;20047;-54
2022/06/07 01:01:43;;;;;;;0.00;0.00;;;;;;;;;;5013498;28;20124;-57
2022/06/07 01:04:10;;;;;;;0.00;0.00;;;;;;;;;;5029989;28;20064;-55
2022/06/07 01:12:06;;;;;;;0.00;0.00;;;;;;;;;;5023274;28;20058;-56
2022/06/07 01:14:32;;;;;;;0.00;0.00;;;;;;;;;;5011403;28;20055;-56
2022/06/07 01:16:59;;;;;;;0.30;0.22;;;;;;;;;;5009679;28;20086;-56
2022/06/07 01:19:26;;;;;;;0.20;0.10;;;;;;;;;;5010270;28;20054;-56
2022/06/07 01:21:53;;;;;;;0.00;0.00;;;;;;;;;;5012718;28;20058;-56
2022/06/07 01:24:19;;;;;;;0.28;0.20;;;;;;;;;;5029914;28;20054;-55
2022/06/07 01:26:46;;;;;;;0.00;0.00;;;;;;;;;;5029454;28;20057;-56
2022/06/07 01:29:13;;;;;;;0.00;0.00;;;;;;;;;;5029352;28;20504;-57
2022/06/07 01:31:39;;;;;;;0.00;0.00;;;;;;;;;;5027445;28;20104;-56
2022/06/07 01:34:06;;;;;;;0.10;0.10;;;;;;;;;;5009699;28;20050;-55
2022/06/07 01:36:32;;;;;;;0.00;0.00;;;;;;;;;;5025162;28;20085;-56
2022/06/07 01:41:56;;;;;;;1.15;0.52;;;;;;;;;;5027042;28;20097;-56
2022/06/07 01:44:23;;;;;;;0.08;0.08;;;;;;;;;;5010275;28;20521;-56
2022/06/07 01:46:50;;;;;;;0.63;0.15;;;;;;;;;;5009182;28;20081;-56
2022/06/07 01:49:17;;;;;;;0.00;0.00;;;;;;;;;;5008947;28;20088;-55
2022/06/07 01:51:44;;;;;;;0.00;0.00;;;;;;;;;;5013668;28;20116;-56
2022/06/07 01:54:12;;;;;;;0.00;0.00;;;;;;;;;;5019925;28;20082;-55
2022/06/07 01:56:38;;;;;;;0.08;0.08;;;;;;;;;;5009952;28;20560;-56
2022/06/07 01:59:05;;;;;;;0.00;0.00;;;;;;;;;;5008864;28;20074;-56
2022/06/07 02:01:32;;;;;;;0.00;0.00;;;;;;;;;;5009035;28;20139;-56
2022/06/07 02:03:58;;;;;;;0.05;0.05;;;;;;;;;;5009727;28;20056;-56
2022/06/07 02:06:25;;;;;;;0.00;0.00;;;;;;;;;;5009876;28;20077;-55
2022/06/07 02:08:51;;;;;;;0.00;0.00;;;;;;;;;;5016709;28;20508;-55
2022/06/07 02:11:19;;;;;;;0.00;0.00;;;;;;;;;;5026694;28;20050;-55
2022/06/07 02:13:46;;;;;;;0.38;0.20;;;;;;;;;;5009167;28;20575;-56
2022/06/07 02:16:14;;;;;;;0.00;0.00;;;;;;;;;;5009475;28;20062;-55
2022/06/07 02:18:40;;;;;;;0.13;0.13;;;;;;;;;;5008732;28;20092;-56
2022/06/07 02:21:07;;;;;;;0.00;0.00;;;;;;;;;;5009300;28;20085;-54
2022/06/07 02:23:34;;;;;;;0.00;0.00;;;;;;;;;;5024170;28;20521;-56
2022/06/07 02:26:03;;;;;;;0.00;0.00;;;;;;;;;;5028011;28;20108;-56
2022/06/07 02:28:32;;;;;;;0.00;0.00;;;;;;;;;;5028929;28;20061;-56
2022/06/07 02:30:58;;;;;;;0.00;0.00;;;;;;;;;;5028757;28;20046;-56
2022/06/07 02:33:26;;;;;;;0.00;0.00;;;;;;;;;;5009044;28;20058;-56
2022/06/07 02:35:52;;;;;;;0.10;0.10;;;;;;;;;;5008747;28;20097;-56
2022/06/07 02:38:19;;;;;;;0.10;0.10;;;;;;;;;;5008692;28;20506;-56
2022/06/07 02:40:47;;;;;;;0.00;0.00;;;;;;;;;;5008841;28;20074;-55
2022/06/07 02:43:13;;;;;;;0.00;0.00;;;;;;;;;;5025127;28;20062;-56
2022/06/07 02:45:39;;;;;;;0.00;0.00;;;;;;;;;;5029526;28;20058;-56
2022/06/07 02:48:07;;;;;;;0.00;0.00;;;;;;;;;;5028188;28;20521;-55
2022/06/07 02:50:34;;;;;;;0.00;0.00;;;;;;;;;;5028633;28;20108;-57
2022/06/07 02:53:00;;;;;;;0.03;0.03;;;;;;;;;;5009746;28;20058;-55
2022/06/07 02:55:27;;;;;;;0.00;0.00;;;;;;;;;;5008684;28;20516;-56
2022/06/07 02:57:53;;;;;;;0.28;0.20;;;;;;;;;;5008529;28;20104;-56
2022/06/07 03:00:19;;;;;;;0.10;0.10;;;;;;;;;;5008409;28;20062;-55
2022/06/07 03:02:48;;;;;;;0.00;0.00;;;;;;;;;;5023949;28;20645;-56
2022/06/07 03:05:15;;;;;;;0.00;0.00;;;;;;;;;;5028427;28;20117;-55
2022/06/07 03:07:42;;;;;;;0.47;0.47;;;;;;;;;;5027819;28;20058;-56
2022/06/07 03:10:09;;;;;;;0.00;0.00;;;;;;;;;;5028274;28;20112;-56
2022/06/07 03:12:35;;;;;;;0.10;0.10;;;;;;;;;;5011648;28;20050;-56
2022/06/07 03:15:02;;;;;;;0.00;0.00;;;;;;;;;;5013326;28;20928;-55
2022/06/07 03:17:28;;;;;;;0.00;0.00;;;;;;;;;;5028120;28;20128;-55
2022/06/07 03:19:55;;;;;;;0.10;0.10;;;;;;;;;;5027614;28;20193;-56
2022/06/07 03:22:22;;;;;;;0.00;0.00;;;;;;;;;;5027814;28;20101;-54
2022/06/07 03:24:49;;;;;;;0.00;0.00;;;;;;;;;;5027276;28;20105;-57
2022/06/07 03:27:16;;;;;;;0.15;0.10;;;;;;;;;;5027823;28;20081;-56
2022/06/07 03:29:42;;;;;;;0.00;0.00;;;;;;;;;;5028733;28;20054;-56
2022/06/07 03:32:09;;;;;;;0.00;0.00;;;;;;;;;;5012149;28;20054;-56
2022/06/07 03:34:37;;;;;;;0.00;0.00;;;;;;;;;;5008308;28;20137;-55
2022/06/07 03:37:03;;;;;;;0.00;0.00;;;;;;;;;;5007362;28;20062;-56
2022/06/07 03:39:30;;;;;;;0.00;0.00;;;;;;;;;;5008121;28;20085;-56
2022/06/07 03:41:56;;;;;;;0.10;0.10;;;;;;;;;;5007770;28;20054;-55
2022/06/07 03:44:23;;;;;;;0.00;0.00;;;;;;;;;;5010072;28;20058;-56
2022/06/07 03:46:49;;;;;;;0.10;0.10;;;;;;;;;;5011877;28;20055;-55
2022/06/07 03:49:16;;;;;;;0.00;0.00;;;;;;;;;;5015066;28;20055;-56
2022/06/07 03:51:42;;;;;;;0.20;0.15;;;;;;;;;;5022093;28;20050;-55
2022/06/07 03:54:08;;;;;;;0.28;0.20;;;;;;;;;;5023916;28;20085;-56
2022/06/07 03:56:35;;;;;;;0.25;0.10;;;;;;;;;;5010829;28;20058;-56
2022/06/07 03:59:01;;;;;;;0.20;0.20;;;;;;;;;;5011071;28;20058;-56
2022/06/07 04:01:28;;;;;;;0.00;0.00;;;;;;;;;;5010606;28;20050;-55
2022/06/07 04:03:58;;;;;;;0.17;0.17;;;;;;;;;;5015437;28;20053;-56
2022/06/07 04:06:27;;;;;;;0.00;0.00;;;;;;;;;;5031120;28;20058;-56
2022/06/07 04:08:54;;;;;;;0.10;0.10;;;;;;;;;;5030903;28;20464;-54
2022/06/07 04:11:22;;;;;;;0.03;0.03;;;;;;;;;;5026528;28;20509;-56
2022/06/07 04:13:49;;;;;;;0.20;0.15;;;;;;;;;;5011583;28;20058;-56
2022/06/07 04:16:17;;;;;;;0.08;0.08;;;;;;;;;;5011341;28;20085;-56
2022/06/07 04:18:43;;;;;;;0.00;0.00;;;;;;;;;;5010971;28;20047;-56
2022/06/07 04:21:10;;;;;;;0.08;0.05;;;;;;;;;;5012783;28;20203;-56
2022/06/07 04:23:37;;;;;;;0.32;0.32;;;;;;;;;;5029126;28;20082;-56
2022/06/07 04:26:17;;;;;;;0.00;0.00;;;;;;;;;;5010660;28;20108;-55
2022/06/07 04:28:44;;;;;;;0.00;0.00;;;;;;;;;;5011139;28;20097;-55
2022/06/07 04:31:14;;;;;;;0.00;0.00;;;;;;;;;;5012071;28;20655;-56
2022/06/07 04:33:41;;;;;;;0.20;0.20;;;;;;;;;;5010360;28;20106;-56
2022/06/07 04:36:09;;;;;;;0.00;0.00;;;;;;;;;;5010738;28;20055;-56
2022/06/07 04:38:35;;;;;;;0.10;0.10;;;;;;;;;;5010575;28;20054;-55
2022/06/07 04:41:06;;;;;;;0.30;0.30;;;;;;;;;;5017276;28;20575;-56
2022/06/07 04:43:33;;;;;;;0.22;0.10;;;;;;;;;;5030610;28;20106;-56
2022/06/07 04:46:07;;;;;;;0.00;0.00;;;;;;;;;;5029839;28;20816;-55
2022/06/07 04:48:34;;;;;;;0.00;0.00;;;;;;;;;;5030365;28;20142;-54
2022/06/07 04:51:27;;;;;;;0.08;0.05;;;;;;;;;;5029225;28;20089;-54
2022/06/07 04:53:55;;;;;;;0.00;0.00;;;;;;;;;;5029153;28;20205;-56
2022/06/07 04:56:23;;;;;;;0.13;0.07;;;;;;;;;;5012570;28;20125;-55
2022/06/07 04:58:50;;;;;;;0.03;0.03;;;;;;;;;;5010209;28;20854;-57
2022/06/07 05:01:23;;;;;;;0.00;0.00;;;;;;;;;;5009908;28;20145;-57
2022/06/07 05:03:51;;;;;;;0.00;0.00;;;;;;;;;;5014506;28;20054;-55
2022/06/07 05:06:19;;;;;;;0.00;0.00;;;;;;;;;;5022802;28;20054;-55
2022/06/07 05:08:45;;;;;;;2.13;0.85;;;;;;;;;;5028586;28;20054;-56
2022/06/07 05:11:12;;;;;;;0.00;0.00;;;;;;;;;;5017728;28;20113;-55
2022/06/07 05:13:39;;;;;;;0.20;0.10;;;;;;;;;;5029491;28;20171;-56
2022/06/07 05:16:06;;;;;;;0.00;0.00;;;;;;;;;;5029871;28;20045;-55
2022/06/07 05:18:33;;;;;;;0.00;0.00;;;;;;;;;;5020419;28;20050;-56
2022/06/07 05:20:59;;;;;;;0.10;0.10;;;;;;;;;;5017371;28;20166;-56
2022/06/07 05:23:25;;;;;;;0.00;0.00;;;;;;;;;;5016496;28;20086;-56
2022/06/07 05:25:54;;;;;;;0.03;0.03;;;;;;;;;;5017815;28;20073;-56
2022/06/07 05:28:20;;;;;;;0.20;0.20;;;;;;;;;;5026501;28;20558;-55
2022/06/07 05:30:47;;;;;;;0.00;0.00;;;;;;;;;;5030337;28;20117;-56
2022/06/07 05:33:13;;;;;;;0.00;0.00;;;;;;;;;;5030180;28;20050;-51
2022/06/07 05:35:39;;;;;;;0.00;0.00;;;;;;;;;;5025217;28;20058;-56
2022/06/07 05:38:06;;;;;;;0.15;0.10;;;;;;;;;;5015716;28;20058;-56
2022/06/07 05:40:33;;;;;;;0.10;0.10;;;;;;;;;;5030074;28;20057;-55
2022/06/07 05:42:59;;;;;;;0.00;0.00;;;;;;;;;;5029195;28;20046;-55
2022/06/07 05:45:26;;;;;;;0.00;0.00;;;;;;;;;;5027129;28;20179;-55
2022/06/07 05:47:52;;;;;;;0.38;0.38;;;;;;;;;;5010497;28;20065;-55
2022/06/07 05:50:25;;;;;;;0.00;0.00;;;;;;;;;;5009660;28;20097;-55
2022/06/07 05:52:51;;;;;;;0.00;0.00;;;;;;;;;;5022471;28;20108;-55
2022/06/07 05:55:18;;;;;;;0.00;0.00;;;;;;;;;;5022235;28;20550;-57
2022/06/07 05:57:49;;;;;;;0.00;0.00;;;;;;;;;;5009669;28;20121;-56
2022/06/07 06:00:16;;;;;;;0.00;0.00;;;;;;;;;;5009484;28;20129;-55
2022/06/07 06:02:42;;;;;;;0.00;0.00;;;;;;;;;;5014676;28;20079;-53
2022/06/07 06:05:10;;;;;;;0.00;0.00;;;;;;;;;;5024158;28;20082;-56
2022/06/07 06:10:19;;;;;;;0.00;0.00;;;;;;;;;;5020525;28;20053;-53
2022/06/07 06:10:23;;;;;;;0.43;0.35;;;;;;;;;;5016924;28;20113;-55
2022/06/07 06:12:50;;;;;;;0.00;0.00;;;;;;;;;;5014344;28;20109;-55
2022/06/07 06:15:16;;;;;;;0.00;0.00;;;;;;;;;;5020315;28;20575;-55
2022/06/07 06:17:43;;;;;;;0.00;0.00;;;;;;;;;;5016002;28;20058;-52
2022/06/07 06:20:09;;;;;;;0.00;0.00;;;;;;;;;;5014390;28;20050;-55
2022/06/07 06:22:37;;;;;;;0.00;0.00;;;;;;;;;;5014327;28;20517;-54
2022/06/07 06:25:04;;;;;;;0.00;0.00;;;;;;;;;;5012629;28;20105;-54
2022/06/07 06:27:31;;;;;;;0.00;0.00;;;;;;;;;;5007181;28;20058;-53
2022/06/07 06:29:58;;;;;;;0.00;0.00;;;;;;;;;;5013806;28;20082;-52
2022/06/07 06:32:24;;;;;;;0.30;0.30;;;;;;;;;;5017929;28;20054;-54
2022/06/07 06:34:51;;;;;;;0.00;0.00;;;;;;;;;;5022905;28;20578;-55
2022/06/07 06:37:18;;;;;;;0.00;0.00;;;;;;;;;;5020434;28;20995;-53
2022/06/07 06:39:44;;;;;;;0.00;0.00;;;;;;;;;;5017539;28;20045;-55
2022/06/07 06:42:11;;;;;;;0.50;0.30;;;;;;;;;;5016783;28;20059;-56
2022/06/07 06:44:48;;;;;;;0.00;0.00;;;;;;;;;;5016127;28;20122;-56
2022/06/07 06:47:14;;;;;;;0.10;0.10;;;;;;;;;;5015646;28;20066;-56
2022/06/07 06:49:41;;;;;;;0.00;0.00;;;;;;;;;;5017389;28;20093;-55
2022/06/07 06:52:08;;;;;;;0.00;0.00;;;;;;;;;;5023131;28;20104;-54
2022/06/07 06:54:34;;;;;;;0.20;0.20;;;;;;;;;;5014046;28;20878;-55
2022/06/07 06:57:01;;;;;;;0.00;0.00;;;;;;;;;;5015361;28;20623;-56
2022/06/07 06:59:27;;;;;;;1.02;1.00;;;;;;;;;;5020776;28;20054;-56
2022/06/07 07:01:54;;;;;;;0.22;0.17;;;;;;;;;;5011235;28;20078;-59
2022/06/07 07:04:21;;;;;;;0.00;0.00;;;;;;;;;;5010263;28;20135;-59
2022/06/07 07:06:48;;;;;;;0.25;0.22;;;;;;;;;;5018140;28;20081;-61
2022/06/07 07:09:17;;;;;;;0.00;0.00;;;;;;;;;;5013087;28;20148;-59
2022/06/07 07:11:46;;;;;;;0.00;0.00;;;;;;;;;;5009041;28;20497;-59
2022/06/07 07:14:13;;;;;;;0.10;0.05;;;;;;;;;;5010322;28;20054;-59
2022/06/07 07:16:41;;;;;;;0.43;0.30;;;;;;;;;;5024669;28;20058;-59
2022/06/07 07:19:08;;;;;;;;;;;;;;;;;;5014663;28;20623;-59
2022/06/07 07:21:36;;;;;;;0.52;0.20;;;;;;;;;;5007186;28;46072;-62
2022/06/07 07:24:04;;;;;;;0.00;0.00;;;;;;;;;;5007998;28;20058;-61
2022/06/07 07:26:31;;;;;;;0.10;0.10;;;;;;;;;;5007074;28;20077;-61
2022/06/07 07:28:57;;;;;;;0.00;0.00;;;;;;;;;;5011774;28;20097;-60
2022/06/07 07:31:26;;;;;;;0.55;0.10;;;;;;;;;;5019395;28;20058;-61
2022/06/07 07:33:52;;;;;;;;;;;;;;;;;;5017572;28;20065;-61
2022/06/07 07:36:19;;;;;;;0.00;0.00;;;;;;;;;;5038584;28;44974;-60
2022/06/07 07:38:46;;;;;;;0.08;0.08;;;;;;;;;;5028909;28;20496;-60
2022/06/07 07:41:18;;;;;;;0.00;0.00;;;;;;;;;;5017848;28;20529;-60
2022/06/07 07:43:45;;;;;;;0.13;0.05;;;;;;;;;;5008773;28;20058;-60
2022/06/07 07:46:13;;;;;;;0.22;0.10;;;;;;;;;;5010290;28;20051;-60
2022/06/07 07:48:40;;;;;;;0.28;0.20;;;;;;;;;;5012792;28;20050;-60
2022/06/07 07:51:10;;;;;;;1.10;1.10;;;;;;;;;;5015619;28;20159;-60
2022/06/07 07:53:36;;;;;;;0.00;0.00;;;;;;;;;;5007959;28;20082;-59
2022/06/07 07:56:07;;;;;;;0.15;0.15;;;;;;;;;;5010403;28;20054;-59
2022/06/07 07:58:34;;;;;;;0.00;0.00;;;;;;;;;;5015239;28;20097;-60
2022/06/07 08:01:06;;;;;;;0.38;0.20;;;;;;;;;;5007965;28;20066;-60
2022/06/07 08:03:33;;;;;;;0.17;0.17;;;;;;;;;;5013450;28;20053;-60
2022/06/07 08:06:12;;;;;;;0.00;0.00;;;;;;;;;;5010047;28;20051;-60
2022/06/07 08:08:39;;;;;;;0.00;0.00;;;;;;;;;;5010805;28;20113;-60
2022/06/07 08:11:06;;;;;;;0.00;0.00;;;;;;;;;;5007278;28;20513;-60
2022/06/07 08:13:32;;;;;;;0.00;0.00;;;;;;;;;;5009510;28;20133;-60
2022/06/07 08:15:59;;;;;;;1.27;0.10;;;;;;;;;;5008956;28;20061;-60
2022/06/07 08:18:26;;;;;;;0.00;0.00;;;;;;;;;;5021651;28;20088;-61
2022/06/07 08:21:00;;;;;;;0.15;0.10;;;;;;;;;;5028041;28;20058;-60
2022/06/07 08:23:28;;;;;;;0.32;0.10;;;;;;;;;;5016289;28;20058;-60
2022/06/07 08:25:55;;;;;;;0.03;0.00;;;;;;;;;;5022821;28;20057;-60
2022/06/07 08:28:22;;;;;;;0.00;0.00;;;;;;;;;;5024891;28;20112;-61
2022/06/07 08:30:48;;;;;;;0.57;0.38;;;;;;;;;;5027915;28;20108;-61
2022/06/07 08:38:45;;;;;;;0.00;0.00;;;;;;;;;;5019607;28;20050;-61
2022/06/07 08:41:19;;;;;;;0.10;0.10;;;;;;;;;;5011483;28;20054;-61
2022/06/07 08:43:45;;;;;;;0.03;0.03;;;;;;;;;;5011019;28;20058;-60
2022/06/07 08:46:14;;;;;;;0.35;0.30;;;;;;;;;;5022959;28;20056;-60
2022/06/07 08:48:42;;;;;;;0.00;0.00;;;;;;;;;;5017826;28;20090;-60
2022/06/07 08:51:34;;;;;;;0.00;0.00;;;;;;;;;;5010866;28;20110;-60
2022/06/07 08:54:06;;;;;;;0.00;0.00;;;;;;;;;;5011561;28;20058;-60
2022/06/07 08:56:34;;;;;;;0.00;0.00;;;;;;;;;;5030605;28;20516;-57
2022/06/07 08:59:05;;;;;;;0.00;0.00;;;;;;;;;;5018215;28;20086;-56
2022/06/07 09:01:43;;;;;;;0.00;0.00;;;;;;;;;;5010590;28;20062;-61
2022/06/07 09:04:36;;;;;;;0.00;0.00;;;;;;;;;;5007989;28;20504;-60
2022/06/07 09:07:05;;;;;;;0.00;0.00;;;;;;;;;;5009330;28;20054;-60
2022/06/07 09:12:21;;;;;;;0.00;0.00;;;;;;;;;;5010292;28;20054;-60
2022/06/07 09:14:50;;;;;;;0.30;0.25;;;;;;;;;;5017187;28;20084;-55
2022/06/07 09:17:17;;;;;;;0.10;0.10;;;;;;;;;;5021636;28;20080;-58
2022/06/07 09:19:45;;;;;;;0.00;0.00;;;;;;;;;;5014241;28;20113;-59
2022/06/07 09:22:19;;;;;;;0.00;0.00;;;;;;;;;;5016990;28;20058;-55
2022/06/07 09:24:57;;;;;;;0.03;0.03;;;;;;;;;;5020144;28;20058;-55
2022/06/07 09:27:25;;;;;;;0.00;0.00;;;;;;;;;;5015499;28;20046;-55
2022/06/07 09:29:52;;;;;;;;;;;;;;;;;;5018447;28;20053;-57
2022/06/07 09:32:19;;;;;;;0.10;0.10;;;;;;;;;;5009650;28;44014;-56
2022/06/07 09:34:51;;;;;;;0.00;0.00;;;;;;;;;;5010309;28;20666;-58
2022/06/07 09:37:21;;;;;;;0.38;0.20;;;;;;;;;;5015308;28;20560;-57
2022/06/07 09:39:49;;;;;;;0.00;0.00;;;;;;;;;;5014069;28;20586;-56
2022/06/07 09:42:15;;;;;;;0.03;0.03;;;;;;;;;;5020564;28;20569;-57
2022/06/07 09:45:08;;;;;;;0.00;0.00;;;;;;;;;;5026264;28;20097;-58
2022/06/07 09:47:34;;;;;;;0.00;0.00;;;;;;;;;;5013634;28;20058;-58
2022/06/07 09:50:25;;;;;;;0.70;0.40;;;;;;;;;;5022018;28;20155;-56
2022/06/07 09:52:56;;;;;;;0.00;0.00;;;;;;;;;;5018151;28;20054;-54
2022/06/07 09:55:22;;;;;;;0.43;0.35;;;;;;;;;;5014181;28;20088;-56
2022/06/07 09:58:06;;;;;;;1.17;0.40;;;;;;;;;;5011513;28;20116;-55
2022/06/07 10:00:39;;;;;;;0.22;0.20;;;;;;;;;;5024762;28;20062;-53
2022/06/07 10:03:17;;;;;;;0.00;0.00;;;;;;;;;;5013956;28;20091;-57
2022/06/07 10:05:54;;;;;;;0.80;0.75;;;;;;;;;;5013151;28;20136;-59
2022/06/07 10:08:23;;;;;;;0.10;0.10;;;;;;;;;;5021868;28;20147;-59
2022/06/07 10:10:53;;;;;;;0.10;0.08;;;;;;;;;;5008977;28;20059;-59
2022/06/07 10:13:19;;;;;;;0.90;0.65;;;;;;;;;;5010285;28;20078;-59
2022/06/07 10:15:51;;;;;;;0.43;0.25;;;;;;;;;;5008888;28;20125;-58
2022/06/07 10:18:21;;;;;;;0.10;0.10;;;;;;;;;;5016743;28;20097;-58
2022/06/07 10:21:08;;;;;;;0.25;0.25;;;;;;;;;;5026034;28;20096;-58
2022/06/07 10:23:41;;;;;;;0.60;0.60;;;;;;;;;;5016488;28;20523;-58
2022/06/07 10:26:20;;;;;;;0.28;0.10;;;;;;;;;;5008079;28;20084;-58
2022/06/07 10:29:12;;;;;;;0.17;0.15;;;;;;;;;;5008935;28;20140;-58
2022/06/07 10:31:39;;;;;;;0.00;0.00;;;;;;;;;;5008363;28;20509;-58
2022/06/07 10:34:26;;;;;;;0.10;0.10;;;;;;;;;;5025800;28;20049;-58
2022/06/07 10:37:03;;;;;;;0.10;0.10;;;;;;;;;;5018360;28;20543;-57
2022/06/07 10:39:33;;;;;;;0.00;0.00;;;;;;;;;;5028647;28;20054;-58
2022/06/07 10:42:05;;;;;;;0.75;0.75;;;;;;;;;;5023926;28;20511;-57
2022/06/07 10:44:33;;;;;;;0.00;0.00;;;;;;;;;;5008670;28;20109;-58
2022/06/07 10:47:08;;;;;;;0.00;0.00;;;;;;;;;;5008968;28;20121;-59
2022/06/07 10:49:42;;;;;;;0.38;0.38;;;;;;;;;;5008545;28;20141;-58
2022/06/07 10:52:20;;;;;;;1.98;0.17;;;;;;;;;;5012514;28;20096;-58
2022/06/07 10:54:54;;;;;;;0.10;0.05;;;;;;;;;;5007528;28;20038;-57
2022/06/07 10:57:23;;;;;;;0.05;0.00;;;;;;;;;;5010807;28;20054;-58
2022/06/07 10:59:51;;;;;;;0.00;0.00;;;;;;;;;;5015038;28;20062;-58
2022/06/07 11:02:26;;;;;;;0.00;0.00;;;;;;;;;;5008023;28;20108;-58
2022/06/07 11:10:27;;;;;;;0.15;0.05;;;;;;;;;;5008103;28;44898;-58
2022/06/07 11:12:57;;;;;;;0.22;0.15;;;;;;;;;;5008084;28;20054;-58
2022/06/07 11:15:31;;;;;;;0.00;0.00;;;;;;;;;;5017391;28;20512;-58
2022/06/07 11:18:13;;;;;;;0.20;0.20;;;;;;;;;;5022669;28;20902;-58
2022/06/07 11:21:01;;;;;;;0.00;0.00;;;;;;;;;;5009148;28;20505;-58
2022/06/07 11:23:32;;;;;;;0.00;0.00;;;;;;;;;;5006993;28;20080;-59
2022/06/07 11:26:01;;;;;;;0.17;0.13;;;;;;;;;;5006010;28;20150;-58
2022/06/07 11:28:42;;;;;;;0.00;0.00;;;;;;;;;;5021719;28;20590;-58
2022/06/07 11:31:20;;;;;;;0.00;0.00;;;;;;;;;;5017886;28;20051;-58
2022/06/07 11:33:47;;;;;;;0.00;0.00;;;;;;;;;;5022631;28;20054;-58
2022/06/07 11:36:20;;;;;;;0.00;0.00;;;;;;;;;;5027558;28;20058;-58
2022/06/07 11:38:56;;;;;;;0.60;0.28;;;;;;;;;;5027713;28;20509;-58
2022/06/07 11:41:37;;;;;;;0.17;0.17;;;;;;;;;;5009704;28;20117;-58
2022/06/07 11:44:13;;;;;;;0.35;0.35;;;;;;;;;;5009956;28;20082;-58
2022/06/07 11:46:47;;;;;;;0.55;0.55;;;;;;;;;;5009328;28;20488;-58
2022/06/07 11:49:19;;;;;;;0.00;0.00;;;;;;;;;;5029247;28;20112;-58
2022/06/07 11:51:53;;;;;;;0.00;0.00;;;;;;;;;;5013910;28;20054;-59
2022/06/07 11:54:23;;;;;;;0.70;0.52;;;;;;;;;;5006459;28;20109;-58
2022/06/07 11:56:51;;;;;;;0.00;0.00;;;;;;;;;;5016834;28;20124;-58
2022/06/07 11:59:18;;;;;;;0.00;0.00;;;;;;;;;;5024203;28;20109;-58
2022/06/07 12:01:53;;;;;;;0.00;0.00;;;;;;;;;;5018477;28;20457;-58
2022/06/07 12:04:35;;;;;;;0.00;0.00;;;;;;;;;;5010899;28;20054;-58
2022/06/07 12:07:08;;;;;;;0.00;0.00;;;;;;;;;;5015568;28;20058;-58
2022/06/07 12:09:36;;;;;;;0.10;0.10;;;;;;;;;;5010932;28;20059;-58
2022/06/07 12:12:20;;;;;;;0.10;0.10;;;;;;;;;;5027387;28;20057;-58
2022/06/07 12:14:49;;;;;;;0.00;0.00;;;;;;;;;;5050848;28;20054;-59
2022/06/07 12:17:29;;;;;;;0.00;0.00;;;;;;;;;;5035994;28;20062;-58
2022/06/07 12:19:56;;;;;;;0.00;0.00;;;;;;;;;;5030557;28;20108;-58
2022/06/07 12:22:24;;;;;;;0.00;0.00;;;;;;;;;;5047479;28;20512;-58
2022/06/07 12:25:00;;;;;;;0.13;0.13;;;;;;;;;;5038104;28;20104;-58
2022/06/07 12:27:47;;;;;;;0.00;0.00;;;;;;;;;;5010808;28;20128;-58
2022/06/07 12:30:25;;;;;;;0.10;0.08;;;;;;;;;;5010868;28;20054;-59
2022/06/07 12:32:54;;;;;;;0.38;0.30;;;;;;;;;;5029812;28;20112;-59
2022/06/07 12:35:28;;;;;;;0.00;0.00;;;;;;;;;;5009935;28;20046;-58
2022/06/07 12:37:56;;;;;;;0.10;0.08;;;;;;;;;;5009781;28;20043;-58
2022/06/07 12:40:26;;;;;;;0.43;0.10;;;;;;;;;;5010091;28;20556;-58
2022/06/07 12:42:52;;;;;;;0.00;0.00;;;;;;;;;;5010528;28;20117;-58
2022/06/07 12:45:21;;;;;;;0.88;0.43;;;;;;;;;;5019747;28;20038;-58
2022/06/07 12:47:55;;;;;;;0.00;0.00;;;;;;;;;;5027290;28;20676;-60
2022/06/07 12:50:27;;;;;;;0.00;0.00;;;;;;;;;;5014314;28;20062;-58
2022/06/07 12:52:54;;;;;;;0.00;0.00;;;;;;;;;;5029178;28;20766;-57
2022/06/07 12:55:28;;;;;;;0.10;0.10;;;;;;;;;;5012510;28;20078;-59
2022/06/07 12:57:58;;;;;;;0.00;0.00;;;;;;;;;;5010802;28;20054;-59
2022/06/07 13:00:29;;;;;;;0.00;0.00;;;;;;;;;;5013246;28;20050;-59
2022/06/07 13:03:02;;;;;;;0.22;0.10;;;;;;;;;;5028837;28;20163;-59
2022/06/07 13:05:32;;;;;;;0.00;0.00;;;;;;;;;;5012754;28;20065;-59
2022/06/07 13:08:00;;;;;;;0.10;0.10;;;;;;;;;;5010316;28;20101;-59
2022/06/07 13:10:28;;;;;;;0.45;0.43;;;;;;;;;;5009743;28;20054;-59
2022/06/07 13:12:55;;;;;;;;;;;;;;;;;;5010773;28;20968;-58
2022/06/07 13:15:23;;;;;;;0.22;0.17;;;;;;;;;;5022465;28;44432;-59
2022/06/07 13:17:52;;;;;;;0.00;0.00;;;;;;;;;;5024696;28;20055;-59
2022/06/07 13:20:25;;;;;;;0.35;0.30;;;;;;;;;;5010247;28;20090;-59
2022/06/07 13:22:52;;;;;;;0.00;0.00;;;;;;;;;;5009788;28;20568;-59
2022/06/07 13:25:22;;;;;;;0.05;0.05;;;;;;;;;;5009996;28;20117;-59
2022/06/07 13:27:53;;;;;;;0.00;0.00;;;;;;;;;;5010218;28;20050;-59
2022/06/07 13:30:22;;;;;;;0.28;0.25;;;;;;;;;;5009946;28;20109;-58
2022/06/07 13:33:03;;;;;;;1.00;0.57;;;;;;;;;;5010160;28;20493;-59
2022/06/07 13:35:38;;;;;;;0.00;0.00;;;;;;;;;;5012543;28;20078;-59
2022/06/07 13:38:18;;;;;;;0.00;0.00;;;;;;;;;;5009130;28;20882;-59
2022/06/07 13:40:44;;;;;;;0.10;0.10;;;;;;;;;;5009670;28;20054;-59
2022/06/07 13:43:10;;;;;;;4.28;0.50;;;;;;;;;;5009525;28;20125;-58
2022/06/07 13:45:45;;;;;;;0.00;0.00;;;;;;;;;;5009950;28;20058;-59
2022/06/07 13:48:15;;;;;;;0.20;0.10;;;;;;;;;;5009352;28;20062;-59
2022/06/07 13:53:48;;;;;;;0.20;0.17;;;;;;;;;;5009625;28;20086;-59
2022/06/07 13:56:17;;;;;;;0.10;0.10;;;;;;;;;;5009208;28;20129;-59
2022/06/07 13:58:48;;;;;;;0.70;0.30;;;;;;;;;;5008968;28;20050;-59
2022/06/07 14:01:29;;;;;;;0.00;0.00;;;;;;;;;;5008301;28;20085;-59
2022/06/07 14:03:59;;;;;;;0.38;0.20;;;;;;;;;;5009146;28;20050;-59
2022/06/07 14:06:26;;;;;;;0.70;0.45;;;;;;;;;;5010134;28;20061;-59
2022/06/07 14:08:53;;;;;;;0.70;0.38;;;;;;;;;;5009479;28;20502;-59
2022/06/07 14:11:20;;;;;;;0.10;0.10;;;;;;;;;;5009437;28;20061;-59
2022/06/07 14:13:46;;;;;;;0.00;0.00;;;;;;;;;;5008849;28;20328;-59
2022/06/07 14:16:28;;;;;;;0.00;0.00;;;;;;;;;;5009576;28;20081;-59
2022/06/07 14:18:55;;;;;;;0.00;0.00;;;;;;;;;;5009530;28;20061;-59
2022/06/07 14:21:21;;;;;;;0.00;0.00;;;;;;;;;;5009629;28;20054;-59
2022/06/07 14:23:48;;;;;;;0.00;0.00;;;;;;;;;;5009348;28;20081;-59
2022/06/07 14:26:14;;;;;;;0.05;0.00;;;;;;;;;;5014085;28;20060;-59
2022/06/07 14:28:41;;;;;;;0.52;0.20;;;;;;;;;;5011371;28;20125;-59
2022/06/07 14:31:24;;;;;;;0.47;0.40;;;;;;;;;;5008504;28;20055;-59
2022/06/07 14:33:51;;;;;;;0.22;0.15;;;;;;;;;;5008727;28;20058;-58
2022/06/07 14:36:18;;;;;;;0.05;0.05;;;;;;;;;;5008489;28;20054;-59
2022/06/07 14:38:46;;;;;;;0.15;0.15;;;;;;;;;;5008936;28;20062;-59
2022/06/07 14:41:12;;;;;;;0.00;0.00;;;;;;;;;;5008718;28;20058;-59
2022/06/07 14:43:39;;;;;;;0.98;0.10;;;;;;;;;;5008882;28;20541;-58
2022/06/07 14:46:14;;;;;;;1.08;0.73;;;;;;;;;;5009402;28;20066;-59
2022/06/07 14:48:42;;;;;;;0.88;0.43;;;;;;;;;;5008843;28;20058;-59
2022/06/07 14:51:17;;;;;;;0.10;0.10;;;;;;;;;;5007514;28;20523;-59
2022/06/07 14:53:44;;;;;;;0.65;0.47;;;;;;;;;;5008721;28;20058;-59
2022/06/07 14:56:14;;;;;;;0.08;0.08;;;;;;;;;;5009045;28;20065;-59
2022/06/07 14:58:41;;;;;;;0.28;0.20;;;;;;;;;;5008987;28;20062;-58
2022/06/07 15:01:12;;;;;;;0.20;0.20;;;;;;;;;;5017203;28;20116;-59
2022/06/07 15:03:38;;;;;;;1.27;0.52;;;;;;;;;;5028297;28;20556;-58
2022/06/07 15:06:05;;;;;;;0.05;0.05;;;;;;;;;;5018277;28;20064;-59
2022/06/07 15:08:31;;;;;;;0.00;0.00;;;;;;;;;;5028208;28;20509;-59
2022/06/07 15:10:58;;;;;;;1.00;0.28;;;;;;;;;;5027289;28;20501;-58
2022/06/07 15:13:28;;;;;;;0.10;0.10;;;;;;;;;;5028337;28;20490;-58
2022/06/07 15:16:00;;;;;;;0.30;0.30;;;;;;;;;;5010151;28;20097;-58
2022/06/07 15:18:30;;;;;;;4.15;0.75;;;;;;;;;;5012662;28;20088;-58
2022/06/07 15:20:56;;;;;;;0.98;0.17;;;;;;;;;;5027084;28;20054;-58